createdAt,value
2018-09-26T00:01:01.628Z,99.9
2018-09-26T00:02:08.831Z,99.9
2018-09-26T00:03:15.769Z,99.9
2018-09-26T00:04:22.970Z,99.9
2018-09-26T00:05:30.179Z,99.9
2018-09-26T00:06:37.387Z,99.9
2018-09-26T00:07:44.589Z,99.9
2018-09-26T00:08:51.798Z,99.9
2018-09-26T00:09:59.008Z,99.9
2018-09-26T00:11:06.203Z,99.9
2018-09-26T00:12:13.141Z,99.9
2018-09-26T00:13:20.069Z,99.9
2018-09-26T00:14:27.277Z,99.9
2018-09-26T00:15:34.483Z,99.9
2018-09-26T00:16:41.681Z,99.9
2018-09-26T00:17:48.926Z,99.9
2018-09-26T00:18:56.329Z,99.9
2018-09-26T00:20:03.523Z,99.9
2018-09-26T00:21:10.732Z,99.9
2018-09-26T00:22:17.930Z,99.9
2018-09-26T00:23:24.859Z,99.9
2018-09-26T00:24:32.065Z,99.9
2018-09-26T00:25:39.003Z,99.9
2018-09-26T00:26:46.210Z,99.9
2018-09-26T00:27:53.407Z,99.9
2018-09-26T00:29:00.614Z,99.9
2018-09-26T00:30:07.811Z,99.9
2018-09-26T00:31:15.022Z,99.9
2018-09-26T00:32:21.996Z,99.9
2018-09-26T00:33:28.917Z,99.9
2018-09-26T00:34:35.840Z,99.9
2018-09-26T00:35:43.115Z,99.9
2018-09-26T00:36:50.650Z,99.9
2018-09-26T00:37:57.862Z,99.9
2018-09-26T00:39:05.062Z,99.9
2018-09-26T00:40:12.264Z,99.9
2018-09-26T00:41:19.190Z,99.9
2018-09-26T00:42:26.392Z,99.9
2018-09-26T00:43:33.320Z,99.9
2018-09-26T00:44:40.534Z,99.9
2018-09-26T00:45:47.736Z,99.9
2018-09-26T00:46:54.669Z,99.9
2018-09-26T00:48:01.878Z,99.9
2018-09-26T00:49:08.821Z,99.9
2018-09-26T00:50:16.031Z,99.9
2018-09-26T00:51:23.241Z,99.9
2018-09-26T00:52:30.447Z,99.9
2018-09-26T00:53:37.645Z,99.9
2018-09-26T00:54:44.852Z,99.9
2018-09-26T00:55:52.068Z,99.9
2018-09-26T00:56:59.272Z,99.9
2018-09-26T00:58:06.473Z,99.9
2018-09-26T00:59:13.681Z,99.9
2018-09-26T01:00:20.887Z,99.9
2018-09-26T01:01:28.100Z,99.9
2018-09-26T01:02:35.300Z,99.9
2018-09-26T01:03:42.496Z,99.9
2018-09-26T01:04:49.427Z,99.9
2018-09-26T01:05:56.655Z,99.9
2018-09-26T01:07:03.864Z,99.9
2018-09-26T01:08:11.093Z,99.9
2018-09-26T01:09:18.063Z,99.9
2018-09-26T01:10:25.272Z,99.9
2018-09-26T01:11:32.481Z,99.9
2018-09-26T01:12:39.687Z,99.9
2018-09-26T01:13:46.886Z,99.9
2018-09-26T01:14:54.097Z,99.9
2018-09-26T01:16:01.312Z,99.9
2018-09-26T01:17:08.518Z,99.9
2018-09-26T01:18:15.715Z,99.9
2018-09-26T01:19:22.924Z,99.9
2018-09-26T01:20:29.850Z,99.9
2018-09-26T01:21:37.047Z,99.9
2018-09-26T01:22:44.257Z,99.9
2018-09-26T01:23:51.466Z,99.9
2018-09-26T01:24:58.670Z,99.9
2018-09-26T01:26:05.871Z,99.9
2018-09-26T01:27:13.073Z,99.9
2018-09-26T01:28:20.274Z,99.9
2018-09-26T01:29:27.480Z,99.9
2018-09-26T01:30:34.686Z,99.9
2018-09-26T01:31:41.892Z,99.9
2018-09-26T01:32:49.098Z,99.9
2018-09-26T01:33:56.021Z,99.9
2018-09-26T01:35:03.229Z,99.9
2018-09-26T01:36:10.432Z,99.9
2018-09-26T01:37:17.630Z,99.9
2018-09-26T01:38:24.837Z,99.9
2018-09-26T01:39:32.048Z,99.9
2018-09-26T01:40:38.990Z,99.9
2018-09-26T01:41:46.192Z,99.9
2018-09-26T01:42:53.430Z,99.9
2018-09-26T01:44:00.633Z,99.9
2018-09-26T01:45:07.823Z,99.9
2018-09-26T01:46:14.752Z,99.9
2018-09-26T01:47:21.702Z,99.9
2018-09-26T01:48:28.905Z,99.9
2018-09-26T01:49:35.837Z,99.9
2018-09-26T01:50:43.040Z,99.9
2018-09-26T01:51:50.235Z,99.9
2018-09-26T01:52:57.435Z,99.9
2018-09-26T01:54:04.640Z,99.9
2018-09-26T01:55:11.846Z,99.9
2018-09-26T01:56:19.057Z,99.9
2018-09-26T01:57:26.263Z,99.9
2018-09-26T01:58:33.473Z,99.9
2018-09-26T01:59:40.397Z,99.9
2018-09-26T02:00:47.598Z,99.9
2018-09-26T02:01:54.808Z,99.9
2018-09-26T02:03:02.014Z,99.9
2018-09-26T02:04:09.214Z,99.9
2018-09-26T02:05:16.413Z,99.9
2018-09-26T02:06:23.614Z,99.9
2018-09-26T02:07:30.815Z,99.9
2018-09-26T02:08:38.017Z,99.9
2018-09-26T02:09:45.218Z,99.9
2018-09-26T02:10:52.420Z,99.9
2018-09-26T02:11:59.347Z,99.9
2018-09-26T02:13:06.549Z,99.9
2018-09-26T02:14:13.751Z,99.9
2018-09-26T02:15:20.950Z,99.9
2018-09-26T02:16:28.152Z,99.9
2018-09-26T02:17:35.376Z,99.9
2018-09-26T02:18:42.582Z,99.9
2018-09-26T02:19:49.793Z,99.9
2018-09-26T02:20:57.002Z,99.9
2018-09-26T02:22:04.202Z,99.9
2018-09-26T02:23:11.415Z,99.9
2018-09-26T02:24:18.615Z,99.9
2018-09-26T02:25:25.560Z,99.9
2018-09-26T02:26:32.759Z,99.9
2018-09-26T02:27:39.967Z,99.9
2018-09-26T02:28:47.162Z,99.9
2018-09-26T02:29:54.360Z,99.9
2018-09-26T02:31:01.561Z,99.9
2018-09-26T02:32:08.772Z,99.9
2018-09-26T02:33:15.703Z,99.9
2018-09-26T02:34:22.904Z,99.9
2018-09-26T02:35:30.153Z,99.9
2018-09-26T02:36:37.345Z,99.9
2018-09-26T02:37:44.547Z,99.9
2018-09-26T02:38:51.749Z,99.9
2018-09-26T02:39:58.956Z,99.9
2018-09-26T02:41:06.162Z,99.9
2018-09-26T02:42:13.360Z,99.9
2018-09-26T02:43:20.320Z,99.9
2018-09-26T02:44:27.248Z,99.9
2018-09-26T02:45:34.447Z,99.9
2018-09-26T02:46:41.648Z,99.9
2018-09-26T02:47:48.575Z,99.9
2018-09-26T02:48:55.506Z,99.9
2018-09-26T02:50:02.711Z,99.9
2018-09-26T02:51:09.921Z,99.9
2018-09-26T02:52:16.849Z,99.9
2018-09-26T02:53:24.058Z,99.9
2018-09-26T02:54:31.255Z,99.9
2018-09-26T02:55:38.189Z,99.9
2018-09-26T02:56:45.529Z,99.9
2018-09-26T02:57:52.727Z,99.9
2018-09-26T02:58:59.930Z,99.9
2018-09-26T03:00:07.138Z,99.9
2018-09-26T03:01:14.347Z,99.9
2018-09-26T03:02:21.282Z,99.9
2018-09-26T03:03:28.212Z,99.9
2018-09-26T03:04:35.417Z,99.9
2018-09-26T03:05:42.622Z,99.9
2018-09-26T03:06:49.551Z,99.9
2018-09-26T03:07:56.752Z,99.9
2018-09-26T03:09:03.961Z,99.9
2018-09-26T03:10:10.898Z,99.9
2018-09-26T03:11:18.096Z,99.9
2018-09-26T03:12:25.302Z,99.9
2018-09-26T03:13:32.226Z,99.9
2018-09-26T03:14:39.424Z,99.9
2018-09-26T03:15:46.636Z,99.9
2018-09-26T03:16:53.844Z,99.9
2018-09-26T03:18:01.048Z,99.9
2018-09-26T03:19:08.253Z,99.9
2018-09-26T03:20:15.456Z,99.9
2018-09-26T03:21:22.663Z,99.9
2018-09-26T03:22:29.879Z,99.9
2018-09-26T03:23:37.082Z,99.9
2018-09-26T03:24:44.287Z,99.9
2018-09-26T03:25:51.496Z,99.9
2018-09-26T03:26:58.698Z,99.9
2018-09-26T03:28:05.626Z,99.9
2018-09-26T03:29:12.832Z,99.9
2018-09-26T03:30:20.047Z,99.9
2018-09-26T03:31:27.247Z,99.9
2018-09-26T03:32:34.462Z,99.9
2018-09-26T03:33:41.736Z,99.9
2018-09-26T03:34:49.415Z,99.9
2018-09-26T03:35:56.613Z,99.9
2018-09-26T03:37:03.824Z,99.9
2018-09-26T03:38:11.035Z,99.9
2018-09-26T03:39:17.968Z,99.9
2018-09-26T03:40:25.178Z,99.9
2018-09-26T03:41:32.102Z,99.9
2018-09-26T03:42:39.036Z,99.9
2018-09-26T03:43:46.247Z,99.9
2018-09-26T03:44:52.910Z,99.9
2018-09-26T03:45:59.841Z,99.9
2018-09-26T03:47:06.768Z,99.9
2018-09-26T03:48:14.003Z,99.9
2018-09-26T03:49:21.220Z,99.9
2018-09-26T03:50:28.421Z,99.9
2018-09-26T03:51:35.636Z,99.9
2018-09-26T03:52:42.834Z,99.9
2018-09-26T03:53:50.037Z,99.9
2018-09-26T03:54:57.009Z,99.9
2018-09-26T03:56:04.214Z,99.9
2018-09-26T03:57:11.415Z,99.9
2018-09-26T03:58:18.620Z,99.9
2018-09-26T03:59:25.823Z,99.9
2018-09-26T04:00:32.489Z,99.9
2018-09-26T04:01:39.698Z,99.9
2018-09-26T04:02:46.896Z,99.9
2018-09-26T04:03:54.101Z,99.9
2018-09-26T04:05:01.070Z,99.9
2018-09-26T04:06:08.723Z,99.9
2018-09-26T04:07:15.928Z,99.9
2018-09-26T04:08:23.136Z,99.9
2018-09-26T04:09:30.353Z,99.9
2018-09-26T04:10:37.571Z,99.9
2018-09-26T04:11:44.495Z,99.9
2018-09-26T04:12:51.857Z,99.9
2018-09-26T04:13:59.596Z,99.9
2018-09-26T04:15:06.807Z,99.9
2018-09-26T04:16:13.732Z,99.9
2018-09-26T04:17:20.657Z,99.9
2018-09-26T04:18:27.863Z,99.9
2018-09-26T04:19:35.066Z,99.9
2018-09-26T04:20:42.277Z,99.9
2018-09-26T04:21:49.478Z,99.9
2018-09-26T04:22:56.676Z,99.9
2018-09-26T04:24:03.887Z,99.9
2018-09-26T04:25:11.091Z,99.9
2018-09-26T04:26:18.348Z,99.9
2018-09-26T04:27:26.186Z,99.9
2018-09-26T04:28:32.775Z,99.9
2018-09-26T04:29:39.975Z,99.9
2018-09-26T04:30:47.177Z,99.9
2018-09-26T04:31:54.449Z,99.9
2018-09-26T04:33:01.859Z,99.9
2018-09-26T04:34:10.070Z,99.9
2018-09-26T04:35:17.290Z,99.9
2018-09-26T04:36:24.491Z,99.9
2018-09-26T04:37:31.697Z,99.9
2018-09-26T04:38:38.939Z,99.9
2018-09-26T04:39:46.216Z,99.9
2018-09-26T04:40:53.179Z,99.9
2018-09-26T04:42:00.376Z,99.9
2018-09-26T04:43:07.586Z,99.9
2018-09-26T04:44:14.910Z,99.9
2018-09-26T04:45:22.112Z,99.9
2018-09-26T04:46:29.319Z,99.9
2018-09-26T04:47:36.247Z,99.9
2018-09-26T04:48:43.462Z,99.9
2018-09-26T04:49:50.657Z,99.9
2018-09-26T04:50:57.699Z,99.9
2018-09-26T04:52:05.288Z,99.9
2018-09-26T04:53:12.498Z,99.9
2018-09-26T04:54:19.698Z,99.9
2018-09-26T04:55:26.912Z,99.9
2018-09-26T04:56:34.121Z,99.9
2018-09-26T04:57:41.342Z,99.9
2018-09-26T04:58:48.618Z,99.9
2018-09-26T04:59:55.833Z,99.9
2018-09-26T05:01:02.492Z,99.9
2018-09-26T05:02:09.694Z,99.9
2018-09-26T05:03:16.897Z,99.9
2018-09-26T05:04:24.092Z,99.9
2018-09-26T05:05:31.348Z,99.9
2018-09-26T05:06:38.551Z,99.9
2018-09-26T05:07:45.756Z,99.9
2018-09-26T05:08:52.982Z,99.9
2018-09-26T05:10:00.318Z,99.9
2018-09-26T05:11:07.527Z,99.9
2018-09-26T05:12:14.725Z,99.9
2018-09-26T05:13:21.932Z,99.9
2018-09-26T05:14:29.138Z,99.9
2018-09-26T05:15:36.339Z,99.9
2018-09-26T05:16:43.545Z,99.9
2018-09-26T05:17:50.752Z,99.9
2018-09-26T05:18:57.954Z,99.9
2018-09-26T05:20:04.885Z,99.9
2018-09-26T05:21:11.810Z,99.9
2018-09-26T05:22:19.018Z,99.9
2018-09-26T05:23:26.231Z,99.9
2018-09-26T05:24:33.432Z,99.9
2018-09-26T05:25:40.638Z,99.9
2018-09-26T05:26:47.847Z,99.9
2018-09-26T05:27:55.049Z,99.9
2018-09-26T05:29:02.278Z,99.9
2018-09-26T05:30:09.497Z,99.9
2018-09-26T05:31:16.709Z,99.9
2018-09-26T05:32:23.912Z,99.9
2018-09-26T05:33:31.128Z,99.9
2018-09-26T05:34:38.335Z,99.9
2018-09-26T05:35:45.542Z,99.9
2018-09-26T05:36:52.763Z,99.9
2018-09-26T05:37:59.962Z,99.9
2018-09-26T05:39:07.220Z,99.9
2018-09-26T05:40:14.097Z,99.9
2018-09-26T05:41:20.753Z,99.9
2018-09-26T05:42:27.961Z,99.9
2018-09-26T05:43:35.168Z,99.9
2018-09-26T05:44:42.102Z,99.9
2018-09-26T05:45:49.307Z,99.9
2018-09-26T05:46:56.516Z,99.9
2018-09-26T05:48:03.722Z,99.9
2018-09-26T05:49:10.925Z,99.9
2018-09-26T05:50:17.882Z,99.9
2018-09-26T05:51:25.233Z,99.9
2018-09-26T05:52:32.429Z,99.9
2018-09-26T05:53:39.650Z,99.9
2018-09-26T05:54:46.567Z,99.9
2018-09-26T05:55:53.798Z,99.9
2018-09-26T05:57:01.050Z,99.9
2018-09-26T05:58:08.253Z,99.9
2018-09-26T05:59:15.191Z,99.9
2018-09-26T06:00:22.391Z,99.9
2018-09-26T06:01:29.320Z,99.9
2018-09-26T06:02:36.248Z,99.9
2018-09-26T06:03:43.173Z,99.9
2018-09-26T06:04:50.102Z,99.9
2018-09-26T06:05:57.311Z,99.9
2018-09-26T06:07:04.542Z,99.9
2018-09-26T06:08:11.751Z,99.9
2018-09-26T06:09:18.682Z,99.9
2018-09-26T06:10:25.880Z,99.9
2018-09-26T06:11:33.085Z,99.9
2018-09-26T06:12:40.390Z,99.9
2018-09-26T06:13:47.869Z,99.9
2018-09-26T06:14:55.072Z,99.9
2018-09-26T06:16:02.017Z,99.9
2018-09-26T06:17:09.211Z,99.9
2018-09-26T06:18:16.418Z,99.9
2018-09-26T06:19:23.628Z,99.9
2018-09-26T06:20:30.829Z,99.9
2018-09-26T06:21:37.752Z,99.9
2018-09-26T06:22:44.967Z,99.9
2018-09-26T06:23:51.894Z,99.9
2018-09-26T06:24:59.101Z,99.9
2018-09-26T06:26:06.043Z,99.9
2018-09-26T06:27:13.253Z,99.9
2018-09-26T06:28:20.454Z,99.9
2018-09-26T06:29:27.383Z,99.9
2018-09-26T06:30:34.605Z,99.9
2018-09-26T06:31:41.807Z,99.9
2018-09-26T06:32:48.740Z,99.9
2018-09-26T06:33:55.994Z,99.9
2018-09-26T06:35:03.235Z,99.9
2018-09-26T06:36:10.972Z,99.9
2018-09-26T06:37:18.184Z,99.9
2018-09-26T06:38:25.105Z,99.9
2018-09-26T06:39:32.312Z,99.9
2018-09-26T06:40:39.512Z,99.9
2018-09-26T06:41:46.719Z,99.9
2018-09-26T06:42:53.927Z,99.9
2018-09-26T06:44:01.133Z,99.9
2018-09-26T06:45:08.378Z,99.9
2018-09-26T06:46:15.591Z,99.9
2018-09-26T06:47:22.559Z,99.9
2018-09-26T06:48:29.947Z,99.9
2018-09-26T06:49:37.149Z,99.9
2018-09-26T06:50:44.353Z,99.9
2018-09-26T06:51:51.783Z,99.9
2018-09-26T06:52:58.978Z,99.9
2018-09-26T06:54:05.970Z,99.9
2018-09-26T06:55:13.558Z,99.9
2018-09-26T06:56:20.494Z,99.9
2018-09-26T06:57:27.426Z,99.9
2018-09-26T06:58:34.641Z,99.9
2018-09-26T06:59:41.576Z,99.9
2018-09-26T07:00:48.789Z,99.9
2018-09-26T07:01:55.985Z,99.9
2018-09-26T07:03:03.203Z,99.9
2018-09-26T07:04:10.412Z,99.9
2018-09-26T07:05:17.340Z,99.9
2018-09-26T07:06:24.547Z,99.9
2018-09-26T07:07:31.487Z,99.9
2018-09-26T07:08:38.696Z,99.9
2018-09-26T07:09:45.905Z,99.9
2018-09-26T07:10:53.106Z,99.9
2018-09-26T07:12:00.365Z,99.9
2018-09-26T07:13:07.667Z,99.9
2018-09-26T07:14:14.870Z,99.9
2018-09-26T07:15:22.076Z,99.9
2018-09-26T07:16:29.276Z,99.9
2018-09-26T07:17:36.485Z,99.9
2018-09-26T07:18:43.437Z,99.9
2018-09-26T07:19:50.641Z,99.9
2018-09-26T07:20:57.851Z,99.9
2018-09-26T07:22:05.063Z,99.9
2018-09-26T07:23:12.269Z,90.5
2018-09-26T07:24:19.477Z,84.8
2018-09-26T07:25:26.689Z,93.4
2018-09-26T07:26:33.620Z,86.4
2018-09-26T07:27:40.829Z,91.2
2018-09-26T07:28:48.032Z,82.6
2018-09-26T07:29:54.969Z,95.8
2018-09-26T07:31:02.179Z,82.8
2018-09-26T07:32:09.563Z,65.8
2018-09-26T07:33:16.617Z,73
2018-09-26T07:34:23.827Z,73.5
2018-09-26T07:35:31.031Z,67.6
2018-09-26T07:36:37.969Z,63
2018-09-26T07:37:45.172Z,66.9
2018-09-26T07:38:52.378Z,62
2018-09-26T07:39:59.591Z,57.5
2018-09-26T07:41:06.795Z,61.6
2018-09-26T07:42:13.999Z,72.2
2018-09-26T07:43:21.421Z,59.8
2018-09-26T07:44:28.076Z,55.3
2018-09-26T07:45:34.883Z,54.7
2018-09-26T07:46:42.707Z,58.1
2018-09-26T07:47:49.092Z,56.1
2018-09-26T07:48:56.300Z,46.7
2018-09-26T07:50:02.964Z,54.2
2018-09-26T07:51:09.898Z,53.6
2018-09-26T07:52:16.834Z,52.5
2018-09-26T07:53:23.773Z,49.2
2018-09-26T07:54:30.431Z,51
2018-09-26T07:55:37.084Z,49
2018-09-26T07:56:43.745Z,46.9
2018-09-26T07:57:50.675Z,42.6
2018-09-26T07:58:57.651Z,51.2
2018-09-26T08:00:05.056Z,35.4
2018-09-26T08:01:12.386Z,39.8
2018-09-26T08:02:19.537Z,44.9
2018-09-26T08:03:26.748Z,40.9
2018-09-26T08:04:33.681Z,32.7
2018-09-26T08:05:40.884Z,37.7
2018-09-26T08:06:48.091Z,41.4
2018-09-26T08:07:55.303Z,30.5
2018-09-26T08:09:02.510Z,33.4
2018-09-26T08:10:09.721Z,26
2018-09-26T08:11:16.989Z,30.1
2018-09-26T08:12:24.330Z,30
2018-09-26T08:13:31.534Z,27.2
2018-09-26T08:14:38.748Z,29.2
2018-09-26T08:15:45.956Z,30.8
2018-09-26T08:16:53.167Z,35.1
2018-09-26T08:18:00.416Z,27.3
2018-09-26T08:19:07.693Z,24.5
2018-09-26T08:20:14.897Z,27.3
2018-09-26T08:21:22.103Z,26.4
2018-09-26T08:22:29.037Z,28
2018-09-26T08:23:36.002Z,28.5
2018-09-26T08:24:43.297Z,26.9
2018-09-26T08:25:50.501Z,27.7
2018-09-26T08:26:57.428Z,28.5
2018-09-26T08:28:04.671Z,26.6
2018-09-26T08:29:11.880Z,25
2018-09-26T08:30:18.540Z,28.3
2018-09-26T08:31:25.746Z,27.7
2018-09-26T08:32:32.963Z,29.3
2018-09-26T08:33:40.166Z,23.8
2018-09-26T08:34:47.368Z,23.8
2018-09-26T08:35:54.307Z,28.3
2018-09-26T08:37:01.517Z,26.1
2018-09-26T08:38:08.740Z,24.6
2018-09-26T08:39:15.945Z,25
2018-09-26T08:40:23.157Z,22.4
2018-09-26T08:41:30.372Z,23.4
2018-09-26T08:42:37.598Z,23.5
2018-09-26T08:43:44.885Z,23.9
2018-09-26T08:44:52.244Z,20.6
2018-09-26T08:45:59.179Z,22
2018-09-26T08:47:06.395Z,21.8
2018-09-26T08:48:13.340Z,17.5
2018-09-26T08:49:20.277Z,17.6
2018-09-26T08:50:27.495Z,16.5
2018-09-26T08:51:34.700Z,17.5
2018-09-26T08:52:41.913Z,16.9
2018-09-26T08:53:49.200Z,15.7
2018-09-26T08:54:56.782Z,16.9
2018-09-26T08:56:03.999Z,18.3
2018-09-26T08:57:11.211Z,14.5
2018-09-26T08:58:18.416Z,19
2018-09-26T08:59:25.628Z,23.4
2018-09-26T09:00:32.834Z,18.1
2018-09-26T09:01:40.051Z,17.4
2018-09-26T09:02:47.265Z,15.4
2018-09-26T09:03:54.473Z,17.1
2018-09-26T09:05:01.688Z,14.7
2018-09-26T09:06:08.924Z,18.3
2018-09-26T09:07:16.358Z,17.2
2018-09-26T09:08:23.573Z,21.6
2018-09-26T09:09:30.784Z,19.8
2018-09-26T09:10:37.995Z,15.4
2018-09-26T09:11:45.248Z,17.8
2018-09-26T09:12:52.919Z,22.2
2018-09-26T09:14:00.133Z,11.4
2018-09-26T09:15:07.339Z,11.8
2018-09-26T09:16:14.554Z,12.5
2018-09-26T09:17:21.765Z,13.8
2018-09-26T09:18:28.973Z,13.9
2018-09-26T09:19:35.910Z,12.9
2018-09-26T09:20:43.117Z,17.1
2018-09-26T09:21:49.779Z,17
2018-09-26T09:22:56.993Z,14.8
2018-09-26T09:24:04.202Z,14.2
2018-09-26T09:25:11.136Z,10
2018-09-26T09:26:18.448Z,12.4
2018-09-26T09:27:25.691Z,12.2
2018-09-26T09:28:33.118Z,11
2018-09-26T09:29:40.333Z,11.6
2018-09-26T09:30:47.538Z,12.9
2018-09-26T09:31:54.752Z,13.1
2018-09-26T09:33:01.683Z,11.7
2018-09-26T09:34:08.893Z,12.8
2018-09-26T09:35:15.831Z,17.3
2018-09-26T09:36:23.083Z,13.8
2018-09-26T09:37:30.388Z,8.1
2018-09-26T09:38:37.610Z,8.6
2018-09-26T09:39:44.817Z,14.2
2018-09-26T09:40:52.034Z,11.8
2018-09-26T09:41:59.249Z,11.1
2018-09-26T09:43:06.462Z,13.8
2018-09-26T09:44:13.679Z,11.3
2018-09-26T09:45:21.032Z,7.9
2018-09-26T09:46:27.969Z,9.5
2018-09-26T09:47:35.187Z,10.4
2018-09-26T09:48:42.403Z,7
2018-09-26T09:49:49.615Z,5.9
2018-09-26T09:50:56.834Z,5.9
2018-09-26T09:52:04.038Z,7.6
2018-09-26T09:53:11.245Z,7.9
2018-09-26T09:54:18.461Z,7.5
2018-09-26T09:55:25.675Z,14
2018-09-26T09:56:32.606Z,12.2
2018-09-26T09:57:39.822Z,10.7
2018-09-26T09:58:47.048Z,11.3
2018-09-26T09:59:54.257Z,9
2018-09-26T10:01:01.468Z,4.4
2018-09-26T10:02:08.679Z,6
2018-09-26T10:03:16.006Z,8.5
2018-09-26T10:04:23.218Z,6.5
2018-09-26T10:05:30.437Z,7
2018-09-26T10:06:37.647Z,10.3
2018-09-26T10:07:44.864Z,8.3
2018-09-26T10:08:52.220Z,8.6
2018-09-26T10:09:59.863Z,9.3
2018-09-26T10:11:07.068Z,6.1
2018-09-26T10:12:14.278Z,6.2
2018-09-26T10:13:21.487Z,9.5
2018-09-26T10:14:28.796Z,5.7
2018-09-26T10:15:36.464Z,1.9
2018-09-26T10:16:43.659Z,3.1
2018-09-26T10:17:50.872Z,2
2018-09-26T10:18:58.081Z,8.6
2018-09-26T10:20:05.314Z,4
2018-09-26T10:21:12.627Z,4.5
2018-09-26T10:22:19.834Z,7.2
2018-09-26T10:23:27.043Z,2.9
2018-09-26T10:24:34.260Z,3.1
2018-09-26T10:25:41.506Z,3.9
2018-09-26T10:26:48.757Z,3.9
2018-09-26T10:27:55.970Z,1
2018-09-26T10:29:03.187Z,3.1
2018-09-26T10:30:10.401Z,5.3
2018-09-26T10:31:17.620Z,6
2018-09-26T10:32:24.915Z,6.1
2018-09-26T10:33:32.532Z,3.3
2018-09-26T10:34:39.467Z,3.3
2018-09-26T10:35:46.679Z,1
2018-09-26T10:36:53.896Z,5
2018-09-26T10:38:01.101Z,3
2018-09-26T10:39:08.312Z,4.8
2018-09-26T10:40:14.991Z,1.6
2018-09-26T10:41:22.203Z,4.1
2018-09-26T10:42:29.417Z,3.6
2018-09-26T10:43:36.623Z,3.4
2018-09-26T10:44:43.839Z,1
2018-09-26T10:45:51.059Z,3.9
2018-09-26T10:46:58.271Z,5.3
2018-09-26T10:48:05.482Z,1
2018-09-26T10:49:12.695Z,1
2018-09-26T10:50:19.999Z,2.4
2018-09-26T10:51:27.820Z,1
2018-09-26T10:52:35.029Z,3.3
2018-09-26T10:53:42.238Z,1
2018-09-26T10:54:49.448Z,1
2018-09-26T10:55:56.663Z,1
2018-09-26T10:57:03.878Z,4.1
2018-09-26T10:58:11.099Z,1
2018-09-26T10:59:18.312Z,1
2018-09-26T11:00:25.541Z,1
2018-09-26T11:01:32.757Z,1
2018-09-26T11:02:39.997Z,1.6
2018-09-26T11:03:47.204Z,2.1
2018-09-26T11:04:54.423Z,1
2018-09-26T11:06:01.632Z,1
2018-09-26T11:07:08.847Z,3
2018-09-26T11:08:16.075Z,1
2018-09-26T11:09:23.422Z,1
2018-09-26T11:10:30.633Z,1
2018-09-26T11:11:37.838Z,1
2018-09-26T11:12:45.331Z,1
2018-09-26T11:13:52.948Z,1
2018-09-26T11:15:00.166Z,1
2018-09-26T11:16:07.401Z,1
2018-09-26T11:17:14.795Z,1
2018-09-26T11:18:22.011Z,1
2018-09-26T11:19:29.231Z,1
2018-09-26T11:20:36.488Z,1
2018-09-26T11:21:43.817Z,1
2018-09-26T11:22:51.028Z,1
2018-09-26T11:23:58.239Z,1
2018-09-26T11:25:04.903Z,1
2018-09-26T11:26:11.899Z,1
2018-09-26T11:27:19.460Z,1
2018-09-26T11:28:26.698Z,1
2018-09-26T11:29:33.916Z,1
2018-09-26T11:30:41.137Z,1
2018-09-26T11:31:48.345Z,1
2018-09-26T11:32:55.555Z,1
2018-09-26T11:34:02.766Z,1
2018-09-26T11:35:09.978Z,1
2018-09-26T11:36:17.191Z,1
2018-09-26T11:37:24.402Z,1
2018-09-26T11:38:31.612Z,1
2018-09-26T11:39:38.822Z,1
2018-09-26T11:40:46.042Z,1
2018-09-26T11:41:53.248Z,1
2018-09-26T11:43:00.458Z,1
2018-09-26T11:44:07.681Z,1
2018-09-26T11:45:14.965Z,1
2018-09-26T11:46:22.264Z,1
2018-09-26T11:47:29.900Z,1
2018-09-26T11:48:37.128Z,1
2018-09-26T11:49:44.329Z,1
2018-09-26T11:50:51.540Z,1
2018-09-26T11:51:58.486Z,1
2018-09-26T11:53:05.692Z,1
2018-09-26T11:54:12.898Z,1
2018-09-26T11:55:20.056Z,1
2018-09-26T11:56:27.027Z,1
2018-09-26T11:57:34.679Z,1
2018-09-26T11:58:41.348Z,1
2018-09-26T11:59:48.565Z,1
2018-09-26T12:00:55.775Z,1
2018-09-26T12:02:02.930Z,1
2018-09-26T12:03:10.322Z,1
2018-09-26T12:04:17.772Z,1
2018-09-26T12:05:25.230Z,1
2018-09-26T12:06:32.457Z,1
2018-09-26T12:07:39.479Z,1
2018-09-26T12:08:46.729Z,1
2018-09-26T12:09:53.950Z,1
2018-09-26T12:11:01.160Z,1
2018-09-26T12:12:08.430Z,1
2018-09-26T12:13:15.751Z,1
2018-09-26T12:14:22.972Z,1
2018-09-26T12:15:30.184Z,1
2018-09-26T12:16:37.128Z,1
2018-09-26T12:17:44.337Z,1
2018-09-26T12:18:51.554Z,1
2018-09-26T12:19:58.768Z,1
2018-09-26T12:21:05.980Z,1
2018-09-26T12:22:13.297Z,1
2018-09-26T12:23:20.969Z,1
2018-09-26T12:24:28.183Z,1
2018-09-26T12:25:35.397Z,1
2018-09-26T12:26:42.614Z,1
2018-09-26T12:27:49.905Z,1
2018-09-26T12:28:57.382Z,1
2018-09-26T12:30:04.599Z,1
2018-09-26T12:31:11.892Z,1
2018-09-26T12:32:19.121Z,1
2018-09-26T12:33:26.342Z,1
2018-09-26T12:34:33.556Z,1
2018-09-26T12:35:40.766Z,1
2018-09-26T12:36:47.975Z,1
2018-09-26T12:37:55.187Z,1
2018-09-26T12:39:02.413Z,1
2018-09-26T12:40:09.688Z,1
2018-09-26T12:41:17.031Z,1
2018-09-26T12:42:24.115Z,1
2018-09-26T12:43:31.818Z,1
2018-09-26T12:44:39.033Z,1
2018-09-26T12:45:46.450Z,1
2018-09-26T12:46:53.672Z,1
2018-09-26T12:48:00.653Z,1
2018-09-26T12:49:08.147Z,1
2018-09-26T12:50:15.082Z,1
2018-09-26T12:51:22.303Z,1
2018-09-26T12:52:29.528Z,1
2018-09-26T12:53:36.561Z,1
2018-09-26T12:54:44.152Z,1
2018-09-26T12:55:51.090Z,1
2018-09-26T12:56:58.033Z,1
2018-09-26T12:58:05.259Z,1
2018-09-26T12:59:12.612Z,1
2018-09-26T13:00:19.875Z,1
2018-09-26T13:01:27.563Z,1
2018-09-26T13:02:34.809Z,1
2018-09-26T13:03:42.221Z,1
2018-09-26T13:04:49.431Z,1
2018-09-26T13:05:56.647Z,1
2018-09-26T13:07:03.866Z,1
2018-09-26T13:08:10.828Z,1
2018-09-26T13:09:18.071Z,1
2018-09-26T13:10:25.343Z,1
2018-09-26T13:11:33.021Z,1
2018-09-26T13:12:40.239Z,1
2018-09-26T13:13:47.181Z,1
2018-09-26T13:14:54.397Z,1
2018-09-26T13:16:01.353Z,1
2018-09-26T13:17:08.568Z,1
2018-09-26T13:18:15.802Z,1
2018-09-26T13:19:23.171Z,1
2018-09-26T13:20:30.125Z,1
2018-09-26T13:21:37.322Z,1
2018-09-26T13:22:44.532Z,1
2018-09-26T13:23:51.747Z,1
2018-09-26T13:24:58.963Z,1
2018-09-26T13:26:06.243Z,1
2018-09-26T13:27:13.178Z,1
2018-09-26T13:28:20.431Z,1
2018-09-26T13:29:27.961Z,1
2018-09-26T13:30:35.180Z,1
2018-09-26T13:31:42.407Z,1
2018-09-26T13:32:49.623Z,1
2018-09-26T13:33:56.836Z,1
2018-09-26T13:35:04.052Z,1
2018-09-26T13:36:11.295Z,1
2018-09-26T13:37:18.576Z,1
2018-09-26T13:38:25.933Z,1
2018-09-26T13:39:33.390Z,1
2018-09-26T13:40:41.252Z,1
2018-09-26T13:41:48.488Z,1
2018-09-26T13:42:55.711Z,1
2018-09-26T13:44:02.918Z,1
2018-09-26T13:45:10.132Z,1
2018-09-26T13:46:17.434Z,1
2018-09-26T13:47:25.347Z,1
2018-09-26T13:48:32.768Z,1
2018-09-26T13:49:39.980Z,1
2018-09-26T13:50:47.208Z,1
2018-09-26T13:51:54.422Z,1
2018-09-26T13:53:01.365Z,1
2018-09-26T13:54:08.669Z,1
2018-09-26T13:55:16.170Z,1
2018-09-26T13:56:23.392Z,1
2018-09-26T13:57:31.100Z,1
2018-09-26T13:58:38.321Z,1
2018-09-26T13:59:45.553Z,1
2018-09-26T14:00:52.772Z,1
2018-09-26T14:01:59.990Z,1
2018-09-26T14:03:06.946Z,1
2018-09-26T14:04:14.185Z,1
2018-09-26T14:05:21.607Z,1
2018-09-26T14:06:28.547Z,1
2018-09-26T14:07:35.488Z,1
2018-09-26T14:08:42.859Z,1
2018-09-26T14:09:50.074Z,1
2018-09-26T14:10:57.287Z,1
2018-09-26T14:12:04.504Z,1
2018-09-26T14:13:11.721Z,1
2018-09-26T14:14:19.020Z,1
2018-09-26T14:15:26.527Z,1
2018-09-26T14:16:33.745Z,1
2018-09-26T14:17:40.957Z,1
2018-09-26T14:18:48.175Z,1
2018-09-26T14:19:55.393Z,1
2018-09-26T14:21:02.612Z,1
2018-09-26T14:22:09.829Z,1
2018-09-26T14:23:17.257Z,1
2018-09-26T14:24:24.417Z,1
2018-09-26T14:26:53.224Z,1
2018-09-26T14:28:00.438Z,1
2018-09-26T14:29:07.881Z,1
2018-09-26T14:30:15.272Z,1
2018-09-26T14:31:22.862Z,1
2018-09-26T14:32:30.280Z,1
2018-09-26T14:33:37.519Z,1
2018-09-26T14:34:44.878Z,1
2018-09-26T14:35:52.086Z,1
2018-09-26T14:36:59.303Z,1
2018-09-26T14:38:06.567Z,1
2018-09-26T14:39:13.917Z,1
2018-09-26T14:40:21.431Z,1
2018-09-26T14:41:28.657Z,1
2018-09-26T14:42:35.873Z,1
2018-09-26T14:43:43.089Z,1
2018-09-26T14:44:50.306Z,1
2018-09-26T14:45:57.608Z,1
2018-09-26T14:47:05.458Z,1
2018-09-26T14:48:12.707Z,1
2018-09-26T14:49:19.927Z,1
2018-09-26T14:50:27.501Z,1
2018-09-26T14:51:34.792Z,1
2018-09-26T14:52:42.049Z,1
2018-09-26T14:53:49.501Z,1
2018-09-26T14:54:56.721Z,1
2018-09-26T14:56:03.935Z,1
2018-09-26T14:57:11.308Z,1
2018-09-26T14:58:18.692Z,1
2018-09-26T14:59:26.009Z,1
2018-09-26T15:00:33.237Z,1
2018-09-26T15:01:40.435Z,1
2018-09-26T15:02:47.862Z,1
2018-09-26T15:03:55.076Z,1
2018-09-26T15:05:02.290Z,1
2018-09-26T15:06:09.573Z,1
2018-09-26T15:07:16.808Z,1
2018-09-26T15:08:24.074Z,1
2018-09-26T15:09:31.603Z,1
2018-09-26T15:10:38.808Z,1
2018-09-26T15:11:46.078Z,1
2018-09-26T15:12:53.135Z,1
2018-09-26T15:14:00.348Z,1
2018-09-26T15:15:07.281Z,1
2018-09-26T15:16:14.523Z,1
2018-09-26T15:17:21.954Z,1
2018-09-26T15:18:29.166Z,1
2018-09-26T15:19:36.382Z,1
2018-09-26T15:20:43.742Z,1
2018-09-26T15:21:51.542Z,1
2018-09-26T15:22:58.752Z,1
2018-09-26T15:24:05.970Z,1
2018-09-26T15:25:13.262Z,1
2018-09-26T15:26:20.488Z,1
2018-09-26T15:27:28.031Z,1